La Joya, NM (87028)

7:36 PM MDT on April 24, 2015 (GMT -0600)
RAWS | | Change Station
CLOSE
Current Station
Personal Weather Station
Location: La Joya, NM
Elevation: 4789 ft
Nearby Weather Stations

Elev 4789 ft 34.38 °N, 106.80 °W | Updated 25 minutes ago

Partly Cloudy
Partly Cloudy
62 °F
Feels Like 62 °F
N
7
Wind Variable Wind from North
Gusts 9.0 mph

Today
High -- | Low -- °F
--% Chance of Precip.
Yesterday
High -- | Low -- °F
Precip. -- in
6:25 AM 7:45 PM
Waxing Crescent, 41% visible
Pressure 29.87 in
Visibility 10.0 miles
Clouds Overcast 11000 ft
Dew Point 31 °F
Humidity 31%
Rainfall in
Snow Depth Not available.
UV 0 out of 12
Pollen 8.90 out of 12
Air Quality Not available.
Flu Activity Local Activity
METAR KE80 250115Z AUTO 06004KT 10SM OVC110 15/04 A2987 RMK AO2 T01450035

More Conditions Fewer Conditions

Pressure 29.87 in
Visibility 10.0 miles
Clouds Overcast 11000 ft
Dew Point 31 °F
Humidity 31%
Rainfall in
Snow Depth Not available.
UV 0 out of 12
Pollen 8.90 out of 12
Air Quality Not available.
Flu Activity Local Activity
METAR KE80 250115Z AUTO 06004KT 10SM OVC110 15/04 A2987 RMK AO2 T01450035

More Conditions Fewer Conditions

Nowcast | as of 7:27 PM MDT on April 24, 2015

Through 9 PM...shower and thunderstorm coverage will continue to diminish over central New Mexico. Showers and thunderstorms will drift to the east at about 30 mph...and remaining activity will be capable of brief moderate rain with amounts generally less than one tenth of an inch. A few cloud to ground lightning strikes and gusty winds to 40 mph are also possible with the stronger storms. Favored areas will include Canones...El Rito...Chili...Rio Rancho... Bernalillo...Cowles...El Porvenir...Carrizozo...White Oaks...Bonito Lake...Lincoln...Arabela...and other surrounding rural locations.

×

10-Day Weather Forecast

Almanac

Astronomy

Apr. 24, 2015 Rise Set
Actual Time
Civil Twilight
Nautical Twilight
Astronomical Twilight
Moon
Length of Visible Light
Length of Day
Tomorrow will be .
, % of the Moon is Illuminated

Today's Extremes

State Highs State Lows

Community

WunderPhotos

Upload Photos

1,816,551 photos uploaded!

WunderBlogs® & News

Nearby

Air Quality

  Air Quality AQ Index Pollutant
Not available.

Snow Depth

Station Depth Elevation

Earthquake Activity

City Distance Mag. Time & Date
Minimum magnitude displayed is 2.5.

Coastal Water Temperatures

Place Temperature

Stations

Nearby Weather Stations

Station Location Temp. Windchill Dew Point Humidity Wind Precip. Elev Updated Type